メインページ
METAR-TAF:

METAR-TAF

空港 :

モスクワ-シェレメーチエヴォ, ロシア

シェレメーチエヴォ国際空港

緯度: 55-59N, 経度: 037-30E, 海抜: 190m

現時点の気象観測

当レポートは17分前の15:30(UTC)に作成
の風 14kt、最大23ktの突風を伴う
気温 13°C
湿度 44%
気圧 1007 hPa
視程10km以上
1,500メートル以下は雲なし、積乱雲なし

METAR: UUEE 191530Z 36007G12MPS CAVOK 13/01 Q1007 R06L/CLRD62 R06R/CLRD62 NOSIG

時間: 18:47 (15:47 UTC)

予報

当レポートは1時間49分前の13:58(UTC)に作成
予報は19日の 15時(UTC)から 20日の 15時(UTC)まで有効
の風 16kt
視程10km以上
高度3000ftの雲は散在している
19日の 15時(UTC)から 19日の 19時(UTC)まで一時的に
北/北西の風 19kt、最大31ktの突風を伴う
19日の 20時(UTC)から 19日の 22時(UTC)まで徐々に
の風 6kt
高度1100ftの雲は散在している

TAF: UUEE 191358Z 1915/2015 36008MPS 9999 SCT030 TX14/2014Z TN03/2003Z TEMPO 1915/1919 34010G16MPS BECMG 1920/1922 35003MPS SCT011

4,000以上の空港の気象観測と天気予報(METAR報とTAF報)

利用可能な観測所は地図上に黄色い丸と赤い丸で示す。

丸の上にカーソルを重ねると観測所名を参照できる。

次にクリックすると気象観測と天気予報を参照できる。

マップの切り替え:黒色「×」印の緑ボタンをクリックして拡大、「-」印の緑ボタンをクリックして縮小、緑色の三角印をクリックして隣りの地図に切り替え


METAR-TAF: